Time;durP1;ratioP1;P1;durP2;ratioP2;P2;SDS_P1;SDS_P2;PMS_P1;PMS_P2;Temp;Humidity;BMP_temperature;BMP_pressure;BME280_temperature;BME280_humidity;BME280_pressure;Samples;Min_cycle;Max_cycle;Signal;HPM_P1;HPM_P2
2022/01/09 00:00:43;;;;;;;0.68;0.60;;;3.70;99.90;;;;;;5096115;28;20190;-79
2022/01/09 00:03:10;;;;;;;0.40;0.40;;;3.70;99.90;;;;;;5097517;28;20581;-80
2022/01/09 00:05:37;;;;;;;0.40;0.40;;;3.70;99.90;;;;;;5096422;28;20240;-79
2022/01/09 00:08:05;;;;;;;0.60;0.60;;;3.70;99.90;;;;;;5096467;28;20204;-80
2022/01/09 00:10:33;;;;;;;0.80;0.73;;;3.70;99.90;;;;;;5096106;28;20204;-80
2022/01/09 00:13:01;;;;;;;0.50;0.40;;;3.70;99.90;;;;;;5095958;28;20671;-79
2022/01/09 00:15:28;;;;;;;0.40;0.40;;;3.70;99.90;;;;;;5095555;28;20710;-80
2022/01/09 00:17:54;;;;;;;0.40;0.35;;;3.70;99.90;;;;;;5096763;28;20193;-79
2022/01/09 00:20:21;;;;;;;1.08;1.08;;;3.70;99.90;;;;;;5096055;28;20223;-79
2022/01/09 00:22:50;;;;;;;0.40;0.30;;;3.70;99.90;;;;;;5096831;28;20192;-80
2022/01/09 00:25:19;;;;;;;0.40;0.40;;;3.70;99.90;;;;;;5102786;28;20221;-80
2022/01/09 00:27:46;;;;;;;0.40;0.40;;;3.70;99.90;;;;;;5101085;28;20189;-80
2022/01/09 00:30:17;;;;;;;0.40;0.30;;;3.70;99.90;;;;;;5100437;28;20198;-80
2022/01/09 00:32:43;;;;;;;0.40;0.38;;;3.70;99.90;;;;;;5104802;28;20235;-78
2022/01/09 00:35:12;;;;;;;0.93;0.93;;;3.70;99.90;;;;;;5103192;28;20225;-80
2022/01/09 00:37:39;;;;;;;0.40;0.30;;;3.70;99.90;;;;;;5103431;28;20228;-80
2022/01/09 00:40:08;;;;;;;0.40;0.38;;;3.70;99.90;;;;;;5104250;28;20200;-80
2022/01/09 00:42:35;;;;;;;0.40;0.40;;;3.80;99.90;;;;;;5102157;28;20212;-80
2022/01/09 00:45:02;;;;;;;0.40;0.30;;;3.80;99.90;;;;;;5095019;28;20216;-80
2022/01/09 00:47:30;;;;;;;0.40;0.40;;;3.80;99.90;;;;;;5094879;28;20197;-80
2022/01/09 00:49:57;;;;;;;0.40;0.40;;;3.80;99.90;;;;;;5097856;28;20200;-80
2022/01/09 00:52:23;;;;;;;0.40;0.30;;;3.90;99.90;;;;;;5095372;28;20197;-80
2022/01/09 00:54:50;;;;;;;0.40;0.30;;;3.90;99.90;;;;;;5095559;28;20233;-80
2022/01/09 00:57:17;;;;;;;0.50;0.50;;;3.90;99.90;;;;;;5097675;28;20209;-80
2022/01/09 00:59:43;;;;;;;0.40;0.30;;;3.90;99.90;;;;;;5109115;28;20197;-80
2022/01/09 01:02:10;;;;;;;0.60;0.50;;;3.90;99.90;;;;;;5107669;28;20204;-81
2022/01/09 01:04:39;;;;;;;0.40;0.40;;;3.90;99.90;;;;;;5103339;28;20213;-80
2022/01/09 01:07:06;;;;;;;0.40;0.40;;;3.90;99.90;;;;;;5106880;28;20211;-79
2022/01/09 01:09:33;;;;;;;0.40;0.30;;;3.90;99.90;;;;;;5105285;28;20189;-79
2022/01/09 01:12:01;;;;;;;0.50;0.50;;;3.90;99.90;;;;;;5109286;28;20200;-79
2022/01/09 01:14:29;;;;;;;0.40;0.40;;;3.90;99.90;;;;;;5106609;28;20232;-80
2022/01/09 01:16:56;;;;;;;0.40;0.30;;;3.90;99.90;;;;;;5107780;28;20219;-80
2022/01/09 01:19:23;;;;;;;0.90;0.77;;;3.90;99.90;;;;;;5108453;28;20196;-80
2022/01/09 01:21:51;;;;;;;0.40;0.40;;;3.90;99.90;;;;;;5098176;28;20193;-80
2022/01/09 01:24:20;;;;;;;0.40;0.40;;;3.90;99.90;;;;;;5095830;28;20221;-80
2022/01/09 01:26:47;;;;;;;0.40;0.40;;;3.90;99.90;;;;;;5095998;28;20204;-80
2022/01/09 01:29:14;;;;;;;0.40;0.40;;;4.00;99.90;;;;;;5095657;28;20204;-80
2022/01/09 01:31:41;;;;;;;0.40;0.40;;;4.00;99.90;;;;;;5095868;28;20192;-79
2022/01/09 01:34:08;;;;;;;0.60;0.40;;;4.00;99.90;;;;;;5095631;28;20217;-78
2022/01/09 01:36:34;;;;;;;0.40;0.40;;;4.00;99.90;;;;;;5094718;28;20221;-80
2022/01/09 01:39:03;;;;;;;0.40;0.40;;;4.00;99.90;;;;;;5095038;28;20197;-79
2022/01/09 01:41:30;;;;;;;0.40;0.30;;;4.10;99.90;;;;;;5095464;28;20607;-80
2022/01/09 01:43:56;;;;;;;0.40;0.40;;;4.10;99.90;;;;;;5095162;28;20209;-80
2022/01/09 01:46:23;;;;;;;0.40;0.40;;;4.10;99.90;;;;;;5096221;28;20189;-79
2022/01/09 01:48:50;;;;;;;0.40;0.40;;;4.10;99.90;;;;;;5095863;28;20205;-80
2022/01/09 01:51:20;;;;;;;0.40;0.40;;;4.10;99.90;;;;;;5095554;28;20197;-80
2022/01/09 01:53:47;;;;;;;0.50;0.40;;;4.10;99.90;;;;;;5095321;28;20212;-79
2022/01/09 01:56:19;;;;;;;0.40;0.40;;;4.20;99.90;;;;;;5095741;28;20200;-79
2022/01/09 01:58:46;;;;;;;0.40;0.40;;;4.10;99.90;;;;;;5095353;28;20254;-79
2022/01/09 02:01:13;;;;;;;0.40;0.40;;;4.20;99.90;;;;;;5095455;28;20194;-80
2022/01/09 02:03:40;;;;;;;0.40;0.40;;;4.20;99.90;;;;;;5095401;28;20217;-80
2022/01/09 02:06:07;;;;;;;0.40;0.30;;;4.20;99.90;;;;;;5094764;28;20189;-80
2022/01/09 02:08:34;;;;;;;0.40;0.30;;;4.20;99.90;;;;;;5094549;28;20197;-79
2022/01/09 02:11:01;;;;;;;0.40;0.30;;;4.20;99.90;;;;;;5094991;28;20200;-80
2022/01/09 02:13:30;;;;;;;0.80;0.80;;;4.20;99.90;;;;;;5094535;28;20205;-80
2022/01/09 02:16:00;;;;;;;0.47;0.45;;;4.20;99.90;;;;;;5101825;22;20564;-80
2022/01/09 02:18:26;;;;;;;1.40;1.30;;;4.20;99.90;;;;;;5074326;28;20316;-80
2022/01/09 02:20:55;;;;;;;0.40;0.30;;;4.20;99.90;;;;;;5086288;28;20201;-81
2022/01/09 02:23:21;;;;;;;0.40;0.40;;;4.30;99.90;;;;;;5094763;28;20204;-80
2022/01/09 02:25:50;;;;;;;0.40;0.30;;;4.30;99.90;;;;;;5094518;28;20224;-81
2022/01/09 02:28:18;;;;;;;0.40;0.30;;;4.30;99.90;;;;;;5094577;28;20609;-81
2022/01/09 02:30:46;;;;;;;0.40;0.40;;;4.30;99.90;;;;;;5093850;28;20193;-80
2022/01/09 02:33:16;;;;;;;0.40;0.40;;;4.40;99.90;;;;;;5093884;28;20197;-80
2022/01/09 02:35:49;;;;;;;0.40;0.30;;;4.40;99.90;;;;;;5093196;28;20287;-80
2022/01/09 02:38:17;;;;;;;0.40;0.30;;;4.50;99.90;;;;;;5094055;28;20621;-81
2022/01/09 02:40:44;;;;;;;0.40;0.30;;;4.50;99.90;;;;;;5094005;28;20205;-81
2022/01/09 02:43:10;;;;;;;1.05;0.70;;;4.50;99.90;;;;;;5091619;28;20200;-80
2022/01/09 02:45:37;;;;;;;0.40;0.40;;;4.50;99.90;;;;;;5093495;28;20213;-80
2022/01/09 02:48:04;;;;;;;0.40;0.30;;;4.50;99.90;;;;;;5093290;28;20578;-80
2022/01/09 02:50:39;;;;;;;0.40;0.40;;;4.50;99.90;;;;;;5093580;28;20284;-81
2022/01/09 02:53:19;;;;;;;0.50;0.40;;;4.50;99.90;;;;;;5093683;28;20196;-81
2022/01/09 02:55:48;;;;;;;1.02;0.85;;;4.50;99.90;;;;;;5093646;28;20224;-78
2022/01/09 02:58:15;;;;;;;0.50;0.40;;;4.50;99.90;;;;;;5093339;28;20217;-80
2022/01/09 03:00:44;;;;;;;0.75;0.75;;;4.50;99.90;;;;;;5093664;28;20574;-81
2022/01/09 03:03:12;;;;;;;1.30;1.27;;;4.50;99.90;;;;;;5093602;28;20228;-81
2022/01/09 03:05:39;;;;;;;0.40;0.40;;;4.60;99.90;;;;;;5094284;28;20725;-80
2022/01/09 03:08:06;;;;;;;3.15;1.33;;;4.60;99.90;;;;;;5094278;28;20201;-80
2022/01/09 03:10:33;;;;;;;0.40;0.40;;;4.60;99.90;;;;;;5093820;28;20201;-80
2022/01/09 03:13:03;;;;;;;0.40;0.30;;;4.60;99.90;;;;;;5093275;28;20201;-80
2022/01/09 03:15:30;;;;;;;0.40;0.30;;;4.70;99.90;;;;;;5093077;28;20232;-80
2022/01/09 03:17:57;;;;;;;0.57;0.57;;;4.70;99.90;;;;;;5093733;28;20225;-80
2022/01/09 03:20:26;;;;;;;0.40;0.40;;;4.70;99.90;;;;;;5095643;28;20197;-79
2022/01/09 03:22:54;;;;;;;0.40;0.32;;;4.70;99.90;;;;;;5098449;28;20742;-80
2022/01/09 03:25:22;;;;;;;0.40;0.40;;;4.70;99.90;;;;;;5098952;28;20718;-81
2022/01/09 03:27:49;;;;;;;0.40;0.38;;;4.70;99.90;;;;;;5098305;28;20185;-78
2022/01/09 03:30:19;;;;;;;0.40;0.30;;;4.70;99.90;;;;;;5094818;28;20193;-79
2022/01/09 03:32:47;;;;;;;0.40;0.40;;;4.70;99.90;;;;;;5095882;28;20193;-81
2022/01/09 03:35:16;;;;;;;0.40;0.30;;;4.70;99.90;;;;;;5097047;28;20228;-81
2022/01/09 03:37:45;;;;;;;0.40;0.30;;;4.60;99.90;;;;;;5095955;28;20212;-80
2022/01/09 03:40:15;;;;;;;0.40;0.40;;;4.60;99.90;;;;;;5096316;28;20216;-81
2022/01/09 03:42:41;;;;;;;1.85;1.75;;;4.60;99.90;;;;;;5096339;28;20207;-80
2022/01/09 03:45:10;;;;;;;0.40;0.40;;;4.60;99.90;;;;;;5096437;28;20213;-81
2022/01/09 03:47:39;;;;;;;0.40;0.30;;;4.60;99.90;;;;;;5096504;28;20221;-79
2022/01/09 03:50:07;;;;;;;0.40;0.30;;;4.60;99.90;;;;;;5095773;28;20193;-80
2022/01/09 03:52:37;;;;;;;0.40;0.30;;;4.70;99.90;;;;;;5095922;28;20204;-78
2022/01/09 03:55:05;;;;;;;0.40;0.30;;;4.70;99.90;;;;;;5094319;28;20250;-79
2022/01/09 03:57:32;;;;;;;0.40;0.30;;;4.70;99.90;;;;;;5095131;28;20728;-79
2022/01/09 03:59:58;;;;;;;0.40;0.40;;;4.70;99.90;;;;;;5097168;28;20197;-79
2022/01/09 04:02:25;;;;;;;0.40;0.30;;;4.80;99.90;;;;;;5099686;28;20200;-79
2022/01/09 04:04:53;;;;;;;0.40;0.30;;;4.80;99.90;;;;;;5097793;28;20212;-79
2022/01/09 04:07:20;;;;;;;0.55;0.52;;;4.80;99.90;;;;;;5096600;28;20670;-79
2022/01/09 04:09:48;;;;;;;0.40;0.32;;;4.90;99.90;;;;;;5097163;28;20557;-79
2022/01/09 04:12:18;;;;;;;0.40;0.40;;;4.90;99.90;;;;;;5098936;28;20197;-79
2022/01/09 04:14:46;;;;;;;0.95;0.68;;;4.90;99.90;;;;;;5100694;28;20197;-77
2022/01/09 04:17:15;;;;;;;0.60;0.60;;;4.90;99.90;;;;;;5098876;28;20227;-79
2022/01/09 04:19:41;;;;;;;0.40;0.38;;;4.90;99.90;;;;;;5097135;28;20563;-78
2022/01/09 04:22:10;;;;;;;6.47;2.70;;;4.90;99.90;;;;;;5098925;28;20694;-79
2022/01/09 04:24:36;;;;;;;0.70;0.68;;;5.00;99.90;;;;;;5098032;28;20575;-78
2022/01/09 04:27:04;;;;;;;0.40;0.40;;;5.00;99.90;;;;;;5095859;28;20206;-80
2022/01/09 04:29:30;;;;;;;8.68;1.77;;;5.10;99.90;;;;;;5095385;28;20662;-78
2022/01/09 04:31:57;;;;;;;0.40;0.40;;;5.10;99.90;;;;;;5096074;28;20198;-78
2022/01/09 04:34:24;;;;;;;0.43;0.43;;;5.10;99.90;;;;;;5096302;28;20224;-78
2022/01/09 04:36:51;;;;;;;0.40;0.30;;;5.20;99.90;;;;;;5095345;28;20217;-79
2022/01/09 04:39:19;;;;;;;0.47;0.43;;;5.20;99.90;;;;;;5095959;28;20189;-78
2022/01/09 04:41:46;;;;;;;1.05;0.95;;;5.30;99.90;;;;;;5098463;28;20197;-79
2022/01/09 04:44:12;;;;;;;8.13;1.25;;;5.30;99.90;;;;;;5097819;28;20562;-81
2022/01/09 04:46:44;;;;;;;2.05;1.33;;;5.30;99.90;;;;;;5099039;28;20213;-80
2022/01/09 04:49:11;;;;;;;1.92;1.83;;;5.30;99.90;;;;;;5097412;28;20193;-81
2022/01/09 04:51:38;;;;;;;0.40;0.40;;;5.40;99.90;;;;;;5097561;28;20200;-80
2022/01/09 04:54:05;;;;;;;0.57;0.57;;;5.40;99.90;;;;;;5096779;28;20204;-80
2022/01/09 04:56:33;;;;;;;0.70;0.70;;;5.40;99.90;;;;;;5098509;28;20276;-80
2022/01/09 04:59:00;;;;;;;4.97;1.20;;;5.40;99.90;;;;;;5096927;28;20217;-80
2022/01/09 05:01:27;;;;;;;0.40;0.40;;;5.40;99.90;;;;;;5096010;28;20201;-80
2022/01/09 05:03:53;;;;;;;0.52;0.52;;;5.40;99.90;;;;;;5094030;28;20199;-79
2022/01/09 05:06:21;;;;;;;2.30;1.55;;;5.40;99.90;;;;;;5093352;28;20217;-79
2022/01/09 05:08:48;;;;;;;2.90;1.17;;;5.40;99.90;;;;;;5092906;28;20193;-76
2022/01/09 05:11:14;;;;;;;1.75;1.00;;;5.40;99.90;;;;;;5092787;28;20198;-78
2022/01/09 05:13:42;;;;;;;0.40;0.40;;;5.40;99.90;;;;;;5092887;28;20223;-78
2022/01/09 05:16:09;;;;;;;1.35;0.80;;;5.40;99.90;;;;;;5092676;28;20710;-79
2022/01/09 05:18:50;;;;;;;1.23;1.23;;;5.40;99.90;;;;;;5092807;28;20219;-78
2022/01/09 05:21:16;;;;;;;2.15;0.60;;;5.40;99.90;;;;;;5092843;28;20189;-78
2022/01/09 05:23:43;;;;;;;0.50;0.50;;;5.30;99.90;;;;;;5092531;28;20194;-79
2022/01/09 05:26:10;;;;;;;0.55;0.55;;;5.40;99.90;;;;;;5092757;28;20271;-78
2022/01/09 05:28:37;;;;;;;2.33;0.68;;;5.40;99.90;;;;;;5092900;28;20647;-78
2022/01/09 05:31:05;;;;;;;0.98;0.88;;;5.40;99.90;;;;;;5091908;28;20194;-79
2022/01/09 05:33:32;;;;;;;1.13;1.02;;;5.40;99.90;;;;;;5092434;28;20193;-78
2022/01/09 05:35:58;;;;;;;4.28;1.95;;;5.30;99.90;;;;;;5092863;28;20225;-80
2022/01/09 05:38:25;;;;;;;1.73;1.10;;;5.30;99.90;;;;;;5094643;28;20220;-79
2022/01/09 05:40:52;;;;;;;0.70;0.65;;;5.30;99.90;;;;;;5093835;28;20201;-81
2022/01/09 05:43:19;;;;;;;0.98;0.88;;;5.30;99.90;;;;;;5094178;28;20201;-81
2022/01/09 05:45:46;;;;;;;0.40;0.30;;;5.30;99.90;;;;;;5094128;28;20209;-79
2022/01/09 05:48:14;;;;;;;0.50;0.50;;;5.30;99.90;;;;;;5093637;28;20189;-81
2022/01/09 05:50:41;;;;;;;2.15;2.05;;;5.30;99.90;;;;;;5093510;28;20200;-80
2022/01/09 05:53:07;;;;;;;0.40;0.30;;;5.30;99.90;;;;;;5094629;28;20193;-81
2022/01/09 05:55:34;;;;;;;0.40;0.40;;;5.20;99.90;;;;;;5093929;28;20220;-80
2022/01/09 05:58:01;;;;;;;1.35;1.30;;;5.20;99.90;;;;;;5093685;28;20301;-80
2022/01/09 06:00:28;;;;;;;0.40;0.40;;;5.20;99.90;;;;;;5093107;28;20201;-81
2022/01/09 06:02:54;;;;;;;0.70;0.70;;;5.20;99.90;;;;;;5094167;28;20697;-80
2022/01/09 06:05:23;;;;;;;4.85;1.88;;;5.20;99.90;;;;;;5093674;28;20717;-80
2022/01/09 06:07:50;;;;;;;2.45;1.05;;;5.10;99.90;;;;;;5093801;28;20246;-79
2022/01/09 06:10:17;;;;;;;2.88;1.63;;;5.20;99.90;;;;;;5093306;28;20208;-80
2022/01/09 06:12:43;;;;;;;3.15;1.50;;;5.20;99.90;;;;;;5093804;28;20201;-80
2022/01/09 06:15:11;;;;;;;1.40;1.30;;;5.20;99.90;;;;;;5093202;28;20219;-81
2022/01/09 06:17:39;;;;;;;0.80;0.70;;;5.20;99.90;;;;;;5094125;28;20217;-80
2022/01/09 06:20:08;;;;;;;0.40;0.30;;;5.10;99.90;;;;;;5093528;28;20589;-80
2022/01/09 06:22:36;;;;;;;0.40;0.40;;;5.10;99.90;;;;;;5092802;28;20197;-79
2022/01/09 06:25:03;;;;;;;0.40;0.40;;;5.10;99.90;;;;;;5094416;28;20216;-79
2022/01/09 06:27:31;;;;;;;0.40;0.30;;;5.10;99.90;;;;;;5094668;28;20193;-78
2022/01/09 06:29:57;;;;;;;0.50;0.50;;;5.10;99.90;;;;;;5094014;28;20201;-78
2022/01/09 06:32:24;;;;;;;0.40;0.40;;;5.10;99.90;;;;;;5095957;28;20189;-81
2022/01/09 06:34:51;;;;;;;0.40;0.40;;;5.10;99.90;;;;;;5100757;28;20193;-79
2022/01/09 06:37:18;;;;;;;0.40;0.40;;;5.10;99.90;;;;;;5094578;28;20200;-79
2022/01/09 06:39:46;;;;;;;0.82;0.82;;;5.10;99.90;;;;;;5094400;28;20705;-79
2022/01/09 06:42:13;;;;;;;0.50;0.43;;;5.10;99.90;;;;;;5096406;28;20197;-80
2022/01/09 06:44:39;;;;;;;0.65;0.55;;;5.10;99.90;;;;;;5094573;28;20200;-79
2022/01/09 06:47:06;;;;;;;0.50;0.50;;;5.00;99.90;;;;;;5093341;28;20311;-79
2022/01/09 06:49:34;;;;;;;0.40;0.40;;;5.00;99.90;;;;;;5094138;28;20185;-79
2022/01/09 06:52:01;;;;;;;2.90;1.10;;;5.00;99.90;;;;;;5096801;28;20189;-81
2022/01/09 06:54:28;;;;;;;0.40;0.40;;;5.00;99.90;;;;;;5098595;28;20199;-81
2022/01/09 06:56:56;;;;;;;0.55;0.55;;;5.00;99.90;;;;;;5095918;28;20258;-78
2022/01/09 06:59:23;;;;;;;2.45;2.35;;;4.90;99.90;;;;;;5095811;28;20213;-79
2022/01/09 07:01:50;;;;;;;0.40;0.40;;;4.90;99.90;;;;;;5097940;28;20189;-78
2022/01/09 07:04:17;;;;;;;0.40;0.40;;;4.90;99.90;;;;;;5097849;28;20198;-79
2022/01/09 07:06:44;;;;;;;1.05;0.70;;;4.90;99.90;;;;;;5097108;28;20224;-78
2022/01/09 07:09:10;;;;;;;0.50;0.50;;;5.00;99.90;;;;;;5095594;28;20220;-78
2022/01/09 07:11:37;;;;;;;1.25;1.05;;;5.00;99.90;;;;;;5094773;28;20772;-78
2022/01/09 07:14:05;;;;;;;0.50;0.50;;;4.90;99.90;;;;;;5095123;28;20680;-78
2022/01/09 07:16:32;;;;;;;1.95;1.45;;;4.90;99.90;;;;;;5094339;28;20606;-79
2022/01/09 07:18:59;;;;;;;1.30;0.60;;;4.90;99.90;;;;;;5094646;28;20220;-78
2022/01/09 07:21:25;;;;;;;0.68;0.50;;;4.90;99.90;;;;;;5095476;28;20205;-78
2022/01/09 07:23:52;;;;;;;0.60;0.40;;;4.90;99.90;;;;;;5094526;28;20567;-78
2022/01/09 07:26:19;;;;;;;0.40;0.40;;;4.90;99.90;;;;;;5094268;28;20714;-78
2022/01/09 07:28:46;;;;;;;0.55;0.55;;;4.90;99.90;;;;;;5094773;28;20570;-79
2022/01/09 07:31:14;;;;;;;0.50;0.40;;;4.90;99.90;;;;;;5094526;28;20197;-78
2022/01/09 07:33:40;;;;;;;0.50;0.40;;;4.90;99.90;;;;;;5094213;28;20197;-78
2022/01/09 07:36:07;;;;;;;0.40;0.40;;;4.90;99.90;;;;;;5093943;28;20217;-77
2022/01/09 07:38:34;;;;;;;0.50;0.50;;;4.90;99.90;;;;;;5093742;28;20698;-76
2022/01/09 07:41:01;;;;;;;0.50;0.40;;;4.90;99.90;;;;;;5093951;28;20189;-76
2022/01/09 07:43:27;;;;;;;0.82;0.82;;;4.90;99.90;;;;;;5094163;28;20695;-77
2022/01/09 07:45:54;;;;;;;0.43;0.43;;;4.90;99.90;;;;;;5093763;28;20213;-76
2022/01/09 07:48:23;;;;;;;0.40;0.40;;;4.80;99.90;;;;;;5094515;28;20193;-77
2022/01/09 07:50:50;;;;;;;0.50;0.50;;;4.80;99.90;;;;;;5093608;28;20594;-77
2022/01/09 07:53:22;;;;;;;1.02;0.85;;;4.80;99.90;;;;;;5094455;28;20615;-76
2022/01/09 07:55:50;;;;;;;0.77;0.77;;;4.80;99.90;;;;;;5095685;28;20669;-76
2022/01/09 07:58:16;;;;;;;0.40;0.30;;;4.80;99.90;;;;;;5093630;28;20209;-76
2022/01/09 08:00:43;;;;;;;0.50;0.50;;;4.80;99.90;;;;;;5093791;28;20200;-77
2022/01/09 08:03:10;;;;;;;0.40;0.40;;;4.80;99.90;;;;;;5093535;28;20296;-77
2022/01/09 08:05:38;;;;;;;0.40;0.40;;;4.90;99.90;;;;;;5094024;28;20216;-77
2022/01/09 08:08:05;;;;;;;0.40;0.40;;;4.90;99.90;;;;;;5094008;28;20201;-76
2022/01/09 08:10:32;;;;;;;0.60;0.60;;;4.90;99.90;;;;;;5092506;28;20212;-77
2022/01/09 08:13:00;;;;;;;0.40;0.40;;;4.90;99.90;;;;;;5093934;28;20198;-75
2022/01/09 08:15:28;;;;;;;0.40;0.40;;;4.90;99.90;;;;;;5093647;28;20589;-77
2022/01/09 08:17:55;;;;;;;0.50;0.50;;;4.90;99.90;;;;;;5141226;22;20213;-81
2022/01/09 08:20:22;;;;;;;1.77;1.08;;;4.90;99.90;;;;;;5083696;28;20193;-81
2022/01/09 08:22:50;;;;;;;5.75;0.85;;;4.90;99.90;;;;;;5093322;28;20213;-81
2022/01/09 08:25:19;;;;;;;0.70;0.70;;;4.90;99.90;;;;;;5096557;28;20201;-81
2022/01/09 08:27:47;;;;;;;1.17;0.60;;;4.90;99.90;;;;;;5096729;28;20221;-81
2022/01/09 08:30:15;;;;;;;0.40;0.40;;;4.80;99.90;;;;;;5096024;28;20189;-80
2022/01/09 08:32:42;;;;;;;0.40;0.40;;;4.80;99.90;;;;;;5096215;28;20201;-81
2022/01/09 08:35:10;;;;;;;0.40;0.40;;;4.80;99.90;;;;;;5096575;28;20198;-80
2022/01/09 08:37:37;;;;;;;8.30;1.38;;;4.80;99.90;;;;;;5096329;28;20213;-81
2022/01/09 08:40:06;;;;;;;0.40;0.40;;;4.90;99.90;;;;;;5095342;28;20500;-77
2022/01/09 08:42:33;;;;;;;1.95;1.20;;;4.90;99.90;;;;;;5096146;28;20197;-81
2022/01/09 08:44:59;;;;;;;0.50;0.40;;;4.90;99.90;;;;;;5096476;28;20247;-81
2022/01/09 08:47:26;;;;;;;1.40;1.02;;;4.90;99.90;;;;;;5096080;28;20217;-80
2022/01/09 08:49:53;;;;;;;0.50;0.50;;;5.00;99.90;;;;;;5096072;28;20662;-80
2022/01/09 08:52:20;;;;;;;0.40;0.40;;;5.00;99.90;;;;;;5096308;28;20193;-80
2022/01/09 08:54:46;;;;;;;0.40;0.40;;;5.00;99.90;;;;;;5097369;28;20189;-81
2022/01/09 08:57:14;;;;;;;0.40;0.40;;;5.00;99.90;;;;;;5100873;28;20209;-81
2022/01/09 08:59:41;;;;;;;0.40;0.40;;;5.10;99.90;;;;;;5095829;28;20694;-80
2022/01/09 09:02:08;;;;;;;0.40;0.40;;;5.20;99.90;;;;;;5095327;28;20204;-80
2022/01/09 09:04:35;;;;;;;1.35;1.08;;;5.20;99.90;;;;;;5096112;28;20189;-80
2022/01/09 09:07:01;;;;;;;0.70;0.60;;;5.30;99.90;;;;;;5095894;28;20213;-81
2022/01/09 09:09:28;;;;;;;0.50;0.40;;;5.30;99.90;;;;;;5095132;28;20193;-81
2022/01/09 09:11:55;;;;;;;0.50;0.40;;;5.30;99.90;;;;;;5095840;28;20196;-80
2022/01/09 09:14:23;;;;;;;0.65;0.65;;;5.20;99.90;;;;;;5095825;28;20386;-81
2022/01/09 09:16:50;;;;;;;0.43;0.40;;;5.20;99.90;;;;;;5095694;28;20233;-81
2022/01/09 09:19:16;;;;;;;0.60;0.60;;;5.30;99.90;;;;;;5094668;28;20213;-80
2022/01/09 09:21:46;;;;;;;0.43;0.40;;;5.30;99.90;;;;;;5095546;28;20220;-81
2022/01/09 09:24:13;;;;;;;0.93;0.50;;;5.30;99.90;;;;;;5096707;28;20726;-80
2022/01/09 09:26:39;;;;;;;0.50;0.50;;;5.30;99.90;;;;;;5097073;28;20263;-79
2022/01/09 09:29:07;;;;;;;0.40;0.40;;;5.30;99.90;;;;;;5095999;28;20197;-80
2022/01/09 09:31:35;;;;;;;0.40;0.40;;;5.30;99.90;;;;;;5096437;28;20193;-80
2022/01/09 09:34:04;;;;;;;1.40;1.02;;;5.30;99.90;;;;;;5095571;28;20193;-81
2022/01/09 09:36:31;;;;;;;0.40;0.30;;;5.30;99.90;;;;;;5095785;28;20225;-81
2022/01/09 09:38:58;;;;;;;2.65;2.45;;;5.30;99.90;;;;;;5095498;28;20236;-78
2022/01/09 09:41:25;;;;;;;0.80;0.80;;;5.40;99.90;;;;;;5094607;28;20201;-80
2022/01/09 09:43:51;;;;;;;0.93;0.93;;;5.30;99.90;;;;;;5096048;28;20342;-81
2022/01/09 09:46:21;;;;;;;0.40;0.40;;;5.30;99.90;;;;;;5095582;28;20201;-80
2022/01/09 09:48:50;;;;;;;0.50;0.50;;;5.30;99.90;;;;;;5094799;28;20193;-80
2022/01/09 09:51:17;;;;;;;0.40;0.40;;;5.30;99.90;;;;;;5094961;28;20204;-81
2022/01/09 09:53:43;;;;;;;1.08;0.98;;;5.30;99.90;;;;;;5096005;28;20197;-79
2022/01/09 09:56:10;;;;;;;1.13;1.02;;;5.40;99.90;;;;;;5096354;28;20196;-80
2022/01/09 09:58:39;;;;;;;0.40;0.40;;;5.50;99.90;;;;;;5098455;28;20228;-80
2022/01/09 10:01:06;;;;;;;1.95;0.50;;;5.60;99.90;;;;;;5100837;28;20212;-81
2022/01/09 10:03:34;;;;;;;0.40;0.40;;;5.70;99.90;;;;;;5101059;28;20197;-81
2022/01/09 10:06:03;;;;;;;0.50;0.40;;;5.80;99.90;;;;;;5099260;28;20197;-81
2022/01/09 10:08:36;;;;;;;0.40;0.40;;;6.00;99.90;;;;;;5104644;28;20224;-79
2022/01/09 10:11:14;;;;;;;0.50;0.43;;;6.10;99.90;;;;;;5100204;28;20189;-79
2022/01/09 10:13:40;;;;;;;1.05;0.50;;;6.10;99.90;;;;;;5104396;28;20247;-81
2022/01/09 10:16:10;;;;;;;0.50;0.40;;;6.30;99.90;;;;;;5097336;28;20205;-80
2022/01/09 10:18:41;;;;;;;0.50;0.40;;;6.30;99.90;;;;;;5096008;28;20771;-80
2022/01/09 10:21:11;;;;;;;0.70;0.60;;;6.30;99.90;;;;;;5095148;28;20198;-81
2022/01/09 10:23:56;;;;;;;0.50;0.50;;;6.20;99.90;;;;;;5096442;28;20212;-81
2022/01/09 10:26:23;;;;;;;1.35;0.63;;;6.10;99.90;;;;;;5095140;28;20658;-80
2022/01/09 10:28:50;;;;;;;0.50;0.40;;;6.00;99.90;;;;;;5093605;28;20201;-79
2022/01/09 10:31:18;;;;;;;0.50;0.40;;;5.90;99.90;;;;;;5093851;28;20197;-81
2022/01/09 10:34:01;;;;;;;1.23;0.60;;;5.90;99.90;;;;;;5093455;28;20190;-80
2022/01/09 10:36:38;;;;;;;1.60;0.80;;;5.90;99.90;;;;;;5093698;28;20283;-81
2022/01/09 10:39:07;;;;;;;1.50;0.98;;;5.80;99.90;;;;;;5093325;28;20570;-80
2022/01/09 10:41:55;;;;;;;2.00;0.85;;;5.70;99.90;;;;;;5096155;28;20193;-82
2022/01/09 10:44:25;;;;;;;0.82;0.50;;;5.70;99.90;;;;;;5096608;28;20255;-80
2022/01/09 10:46:57;;;;;;;0.40;0.32;;;5.70;99.90;;;;;;5093889;28;20302;-80
2022/01/09 10:49:25;;;;;;;0.40;0.40;;;5.70;99.90;;;;;;5092471;28;20185;-79
2022/01/09 10:52:13;;;;;;;0.90;0.90;;;5.70;99.90;;;;;;5093791;28;20194;-80
2022/01/09 10:54:41;;;;;;;0.50;0.45;;;5.70;99.90;;;;;;5093520;28;20205;-80
2022/01/09 10:57:12;;;;;;;1.15;1.05;;;5.60;99.90;;;;;;5093698;28;20221;-80
2022/01/09 10:59:39;;;;;;;2.88;0.68;;;5.60;99.90;;;;;;5093229;28;20705;-80
2022/01/09 11:02:06;;;;;;;3.50;1.10;;;5.50;99.90;;;;;;5093090;28;20200;-81
2022/01/09 11:04:33;;;;;;;0.73;0.73;;;5.40;99.90;;;;;;5093070;28;20193;-81
2022/01/09 11:07:01;;;;;;;0.50;0.50;;;5.30;99.90;;;;;;5093520;28;20220;-80
2022/01/09 11:09:30;;;;;;;0.60;0.60;;;5.30;99.90;;;;;;5093172;28;20197;-80
2022/01/09 11:11:57;;;;;;;1.67;0.50;;;5.30;99.90;;;;;;5093648;28;20205;-80
2022/01/09 11:14:26;;;;;;;0.40;0.40;;;5.30;99.90;;;;;;5093670;28;20201;-80
2022/01/09 11:16:54;;;;;;;0.70;0.50;;;5.40;99.90;;;;;;5093024;28;20222;-78
2022/01/09 11:19:23;;;;;;;6.53;1.40;;;5.40;99.90;;;;;;5093013;28;20705;-80
2022/01/09 11:21:52;;;;;;;0.60;0.50;;;5.40;99.90;;;;;;5093702;28;20220;-80
2022/01/09 11:24:30;;;;;;;3.20;1.20;;;5.30;99.90;;;;;;5093551;28;20293;-82
2022/01/09 11:27:01;;;;;;;0.60;0.60;;;5.30;99.90;;;;;;5094050;28;20221;-82
2022/01/09 11:29:36;;;;;;;0.60;0.60;;;5.40;99.90;;;;;;5094111;28;20253;-81
2022/01/09 11:32:13;;;;;;;0.60;0.60;;;5.50;99.90;;;;;;5093478;28;20181;-81
2022/01/09 11:34:51;;;;;;;0.40;0.40;;;5.70;99.90;;;;;;5093958;28;20197;-81
2022/01/09 11:37:27;;;;;;;0.50;0.50;;;5.90;99.90;;;;;;5093301;28;20262;-79
2022/01/09 11:39:55;;;;;;;0.60;0.60;;;5.90;99.90;;;;;;5093764;28;20197;-81
2022/01/09 11:42:22;;;;;;;0.50;0.50;;;5.90;99.90;;;;;;5093701;28;20204;-81
2022/01/09 11:44:51;;;;;;;3.38;3.10;;;5.90;99.90;;;;;;5093106;28;20204;-79
2022/01/09 11:47:18;;;;;;;4.25;0.85;;;5.90;99.90;;;;;;5097575;28;20220;-80
2022/01/09 11:50:08;;;;;;;0.40;0.30;;;5.70;99.90;;;;;;5097204;28;20197;-81
2022/01/09 11:52:59;;;;;;;0.40;0.40;;;5.70;99.90;;;;;;5096866;28;20257;-81
2022/01/09 11:55:41;;;;;;;0.40;0.30;;;5.70;99.90;;;;;;5096776;28;20197;-81
2022/01/09 11:58:09;;;;;;;1.48;1.38;;;5.70;99.90;;;;;;5097365;28;20275;-79
2022/01/09 12:00:38;;;;;;;0.52;0.52;;;5.70;99.90;;;;;;5097215;28;20208;-80
2022/01/09 12:03:36;;;;;;;13.38;1.42;;;5.80;99.90;;;;;;5097248;28;20219;-81
2022/01/09 12:06:04;;;;;;;0.50;0.40;;;5.90;99.90;;;;;;5043520;28;20233;-80
2022/01/09 12:09:05;;;;;;;1.95;1.45;;;5.90;99.90;;;;;;5100428;28;20221;-81
2022/01/09 12:12:08;;;;;;;0.80;0.80;;;5.90;99.90;;;;;;5100252;28;20193;-81
2022/01/09 12:14:56;;;;;;;0.82;0.82;;;5.90;99.90;;;;;;5100033;28;20263;-79
2022/01/09 12:17:40;;;;;;;0.63;0.63;;;6.00;99.90;;;;;;5098444;28;20221;-81
2022/01/09 12:20:10;;;;;;;0.50;0.40;;;5.90;99.90;;;;;;5096498;28;20212;-81
2022/01/09 12:23:04;;;;;;;0.70;0.70;;;6.00;99.90;;;;;;5097181;28;20198;-81
2022/01/09 12:26:04;;;;;;;1.73;1.13;;;5.90;99.90;;;;;;5096690;28;20264;-81
2022/01/09 12:28:44;;;;;;;0.52;0.52;;;5.80;99.90;;;;;;5088651;28;20225;-81
2022/01/09 12:31:24;;;;;;;1.02;0.73;;;5.70;99.90;;;;;;5096411;28;20181;-81
2022/01/09 12:33:53;;;;;;;0.50;0.40;;;5.80;99.90;;;;;;5096487;28;20298;-81
2022/01/09 12:36:34;;;;;;;1.50;1.40;;;5.80;99.90;;;;;;5095826;28;20193;-79
2022/01/09 12:39:05;;;;;;;0.50;0.50;;;6.00;99.90;;;;;;5092354;28;20213;-81
2022/01/09 12:41:36;;;;;;;0.70;0.60;;;6.00;99.90;;;;;;5095191;28;20210;-80
2022/01/09 12:44:08;;;;;;;0.45;0.30;;;6.10;99.90;;;;;;5096276;28;20195;-80
2022/01/09 12:46:39;;;;;;;0.50;0.30;;;6.20;99.90;;;;;;5096267;28;20214;-80
2022/01/09 12:49:07;;;;;;;1.77;1.25;;;6.30;99.90;;;;;;5096013;28;20243;-81
2022/01/09 12:51:35;;;;;;;0.77;0.60;;;6.50;99.90;;;;;;5095692;28;20189;-81
2022/01/09 12:54:06;;;;;;;0.60;0.60;;;6.50;99.90;;;;;;5095947;28;20200;-81
2022/01/09 12:56:36;;;;;;;6.28;2.60;;;6.40;99.90;;;;;;5097823;28;20197;-78
2022/01/09 12:59:07;;;;;;;5.18;1.45;;;6.20;99.90;;;;;;5108158;28;20183;-80
2022/01/09 13:01:40;;;;;;;0.40;0.40;;;6.10;99.90;;;;;;5100228;28;20308;-80
2022/01/09 13:04:14;;;;;;;0.50;0.40;;;6.10;99.90;;;;;;5095864;28;20182;-80
2022/01/09 13:06:41;;;;;;;4.22;0.60;;;6.10;99.90;;;;;;5095435;28;20213;-78